Terminal Aerodrome Forecast
Issued by NWS

Home | Current Version | Previous Version | Text Only | Print | Product List | Glossary On
Versions: 1 2 3 4 5 6 7 8 9 10 11 12 13 14 15 16 17 18 19 20 21
333
FTUS41 KPHI 261129
TAFMIV
TAF
KMIV 261129Z 2612/2712 31012KT P6SM BKN045
     FM261400 30012G22KT P6SM BKN050
     FM262100 27010KT P6SM FEW060
     FM270000 VRB03KT P6SM SKC=

USA.gov is the U.S. government's official web portal to all federal, state and local government web resources and services.